sensor_id;sensor_type;location;lat;lon;timestamp;P1;durP1;ratioP1;P2;durP2;ratioP2
34212;SDS011;20477;51.390;8.102;2023-05-21T00:01:23;25.90;;;13.68;;
34212;SDS011;20477;51.390;8.102;2023-05-21T00:03:52;21.90;;;14.40;;
34212;SDS011;20477;51.390;8.102;2023-05-21T00:06:20;24.70;;;14.13;;
34212;SDS011;20477;51.390;8.102;2023-05-21T00:08:48;23.60;;;13.45;;
34212;SDS011;20477;51.390;8.102;2023-05-21T00:11:16;24.10;;;14.55;;
34212;SDS011;20477;51.390;8.102;2023-05-21T00:13:45;20.30;;;14.15;;
34212;SDS011;20477;51.390;8.102;2023-05-21T00:16:14;19.95;;;14.50;;
34212;SDS011;20477;51.390;8.102;2023-05-21T00:18:42;18.92;;;13.15;;
34212;SDS011;20477;51.390;8.102;2023-05-21T00:21:11;19.08;;;13.80;;
34212;SDS011;20477;51.390;8.102;2023-05-21T00:23:39;23.50;;;14.48;;
34212;SDS011;20477;51.390;8.102;2023-05-21T00:26:08;24.50;;;14.32;;
34212;SDS011;20477;51.390;8.102;2023-05-21T00:28:36;25.15;;;14.40;;
34212;SDS011;20477;51.390;8.102;2023-05-21T00:31:04;27.92;;;15.27;;
34212;SDS011;20477;51.390;8.102;2023-05-21T00:33:34;23.25;;;13.55;;
34212;SDS011;20477;51.390;8.102;2023-05-21T00:36:02;19.42;;;14.55;;
34212;SDS011;20477;51.390;8.102;2023-05-21T00:38:31;19.88;;;15.23;;
34212;SDS011;20477;51.390;8.102;2023-05-21T00:40:59;24.45;;;14.50;;
34212;SDS011;20477;51.390;8.102;2023-05-21T00:43:28;22.83;;;14.82;;
34212;SDS011;20477;51.390;8.102;2023-05-21T00:45:58;24.38;;;13.88;;
34212;SDS011;20477;51.390;8.102;2023-05-21T00:48:26;20.02;;;14.32;;
34212;SDS011;20477;51.390;8.102;2023-05-21T00:50:56;21.17;;;13.27;;
34212;SDS011;20477;51.390;8.102;2023-05-21T00:53:24;19.55;;;14.98;;
34212;SDS011;20477;51.390;8.102;2023-05-21T00:55:52;22.95;;;15.40;;
34212;SDS011;20477;51.390;8.102;2023-05-21T00:58:20;21.50;;;15.20;;
34212;SDS011;20477;51.390;8.102;2023-05-21T01:00:49;20.88;;;14.77;;
34212;SDS011;20477;51.390;8.102;2023-05-21T01:03:17;21.45;;;14.48;;
34212;SDS011;20477;51.390;8.102;2023-05-21T01:05:46;20.77;;;14.20;;
34212;SDS011;20477;51.390;8.102;2023-05-21T01:08:15;25.88;;;15.05;;
34212;SDS011;20477;51.390;8.102;2023-05-21T01:10:46;22.55;;;14.82;;
34212;SDS011;20477;51.390;8.102;2023-05-21T01:13:14;21.95;;;14.65;;
34212;SDS011;20477;51.390;8.102;2023-05-21T01:15:43;23.05;;;14.27;;
34212;SDS011;20477;51.390;8.102;2023-05-21T01:18:11;18.83;;;12.48;;
34212;SDS011;20477;51.390;8.102;2023-05-21T01:20:41;20.48;;;13.02;;
34212;SDS011;20477;51.390;8.102;2023-05-21T01:23:15;17.25;;;12.98;;
34212;SDS011;20477;51.390;8.102;2023-05-21T01:25:44;18.70;;;11.65;;
34212;SDS011;20477;51.390;8.102;2023-05-21T01:28:12;17.67;;;12.07;;
34212;SDS011;20477;51.390;8.102;2023-05-21T01:30:41;22.08;;;12.73;;
34212;SDS011;20477;51.390;8.102;2023-05-21T01:33:10;20.45;;;12.93;;
34212;SDS011;20477;51.390;8.102;2023-05-21T01:35:43;21.17;;;13.27;;
34212;SDS011;20477;51.390;8.102;2023-05-21T01:38:16;21.27;;;12.13;;
34212;SDS011;20477;51.390;8.102;2023-05-21T01:40:51;15.57;;;12.85;;
34212;SDS011;20477;51.390;8.102;2023-05-21T01:43:20;17.67;;;12.45;;
34212;SDS011;20477;51.390;8.102;2023-05-21T01:45:50;19.15;;;12.25;;
34212;SDS011;20477;51.390;8.102;2023-05-21T01:48:21;19.80;;;12.68;;
34212;SDS011;20477;51.390;8.102;2023-05-21T01:50:49;23.23;;;13.00;;
34212;SDS011;20477;51.390;8.102;2023-05-21T01:53:21;19.58;;;12.10;;
34212;SDS011;20477;51.390;8.102;2023-05-21T01:55:50;21.63;;;12.25;;
34212;SDS011;20477;51.390;8.102;2023-05-21T01:58:19;17.88;;;13.07;;
34212;SDS011;20477;51.390;8.102;2023-05-21T02:00:48;17.73;;;12.57;;
34212;SDS011;20477;51.390;8.102;2023-05-21T02:03:17;18.27;;;12.75;;
34212;SDS011;20477;51.390;8.102;2023-05-21T02:05:47;17.13;;;11.68;;
34212;SDS011;20477;51.390;8.102;2023-05-21T02:08:17;17.40;;;12.63;;
34212;SDS011;20477;51.390;8.102;2023-05-21T02:10:47;19.77;;;13.40;;
34212;SDS011;20477;51.390;8.102;2023-05-21T02:13:15;24.02;;;14.40;;
34212;SDS011;20477;51.390;8.102;2023-05-21T02:15:45;21.67;;;13.85;;
34212;SDS011;20477;51.390;8.102;2023-05-21T02:18:13;19.05;;;13.20;;
34212;SDS011;20477;51.390;8.102;2023-05-21T02:20:43;19.73;;;13.07;;
34212;SDS011;20477;51.390;8.102;2023-05-21T02:23:12;20.75;;;13.50;;
34212;SDS011;20477;51.390;8.102;2023-05-21T02:25:40;22.92;;;14.00;;
34212;SDS011;20477;51.390;8.102;2023-05-21T02:28:10;21.33;;;14.65;;
34212;SDS011;20477;51.390;8.102;2023-05-21T02:30:38;19.92;;;13.13;;
34212;SDS011;20477;51.390;8.102;2023-05-21T02:33:06;21.85;;;14.32;;
34212;SDS011;20477;51.390;8.102;2023-05-21T02:35:39;20.33;;;13.32;;
34212;SDS011;20477;51.390;8.102;2023-05-21T02:38:09;22.20;;;13.50;;
34212;SDS011;20477;51.390;8.102;2023-05-21T02:40:38;17.33;;;12.45;;
34212;SDS011;20477;51.390;8.102;2023-05-21T02:43:07;21.33;;;12.93;;
34212;SDS011;20477;51.390;8.102;2023-05-21T02:45:36;19.75;;;13.63;;
34212;SDS011;20477;51.390;8.102;2023-05-21T02:48:05;22.88;;;13.85;;
34212;SDS011;20477;51.390;8.102;2023-05-21T02:50:33;21.05;;;12.02;;
34212;SDS011;20477;51.390;8.102;2023-05-21T02:53:01;19.52;;;12.40;;
34212;SDS011;20477;51.390;8.102;2023-05-21T02:55:29;17.25;;;13.13;;
34212;SDS011;20477;51.390;8.102;2023-05-21T02:57:57;17.30;;;11.95;;
34212;SDS011;20477;51.390;8.102;2023-05-21T03:00:26;19.27;;;12.13;;
34212;SDS011;20477;51.390;8.102;2023-05-21T03:02:55;20.20;;;11.70;;
34212;SDS011;20477;51.390;8.102;2023-05-21T03:05:23;16.80;;;12.05;;
34212;SDS011;20477;51.390;8.102;2023-05-21T03:07:52;19.38;;;12.75;;
34212;SDS011;20477;51.390;8.102;2023-05-21T03:10:20;17.73;;;12.48;;
34212;SDS011;20477;51.390;8.102;2023-05-21T03:12:48;19.40;;;13.00;;
34212;SDS011;20477;51.390;8.102;2023-05-21T03:15:16;18.10;;;12.98;;
34212;SDS011;20477;51.390;8.102;2023-05-21T03:17:49;22.00;;;15.43;;
34212;SDS011;20477;51.390;8.102;2023-05-21T03:20:21;25.70;;;14.75;;
34212;SDS011;20477;51.390;8.102;2023-05-21T03:22:49;18.92;;;14.23;;
34212;SDS011;20477;51.390;8.102;2023-05-21T03:25:18;26.38;;;16.58;;
34212;SDS011;20477;51.390;8.102;2023-05-21T03:27:46;20.33;;;13.52;;
34212;SDS011;20477;51.390;8.102;2023-05-21T03:30:15;24.63;;;16.23;;
34212;SDS011;20477;51.390;8.102;2023-05-21T03:32:43;24.75;;;15.30;;
34212;SDS011;20477;51.390;8.102;2023-05-21T03:35:11;24.25;;;15.18;;
34212;SDS011;20477;51.390;8.102;2023-05-21T03:37:41;21.98;;;15.65;;
34212;SDS011;20477;51.390;8.102;2023-05-21T03:40:09;24.20;;;16.13;;
34212;SDS011;20477;51.390;8.102;2023-05-21T03:42:38;27.58;;;16.00;;
34212;SDS011;20477;51.390;8.102;2023-05-21T03:45:07;23.08;;;16.05;;
34212;SDS011;20477;51.390;8.102;2023-05-21T03:47:35;26.50;;;18.40;;
34212;SDS011;20477;51.390;8.102;2023-05-21T03:50:04;27.35;;;18.33;;
34212;SDS011;20477;51.390;8.102;2023-05-21T03:52:34;22.88;;;15.75;;
34212;SDS011;20477;51.390;8.102;2023-05-21T03:55:04;22.38;;;15.98;;
34212;SDS011;20477;51.390;8.102;2023-05-21T03:57:33;22.00;;;15.35;;
34212;SDS011;20477;51.390;8.102;2023-05-21T04:00:01;20.27;;;15.35;;
34212;SDS011;20477;51.390;8.102;2023-05-21T04:02:30;21.10;;;16.20;;
34212;SDS011;20477;51.390;8.102;2023-05-21T04:04:58;28.08;;;17.15;;
34212;SDS011;20477;51.390;8.102;2023-05-21T04:07:27;24.17;;;16.25;;
34212;SDS011;20477;51.390;8.102;2023-05-21T04:09:55;28.60;;;15.95;;
34212;SDS011;20477;51.390;8.102;2023-05-21T04:12:24;21.98;;;16.48;;
34212;SDS011;20477;51.390;8.102;2023-05-21T04:14:53;24.63;;;16.75;;
34212;SDS011;20477;51.390;8.102;2023-05-21T04:17:21;26.58;;;16.90;;
34212;SDS011;20477;51.390;8.102;2023-05-21T04:19:52;21.75;;;15.38;;
34212;SDS011;20477;51.390;8.102;2023-05-21T04:22:20;29.35;;;15.55;;
34212;SDS011;20477;51.390;8.102;2023-05-21T04:24:51;24.48;;;15.35;;
34212;SDS011;20477;51.390;8.102;2023-05-21T04:27:20;21.45;;;15.48;;
34212;SDS011;20477;51.390;8.102;2023-05-21T04:29:51;26.15;;;16.13;;
34212;SDS011;20477;51.390;8.102;2023-05-21T04:32:20;23.70;;;16.13;;
34212;SDS011;20477;51.390;8.102;2023-05-21T04:34:48;21.73;;;15.88;;
34212;SDS011;20477;51.390;8.102;2023-05-21T04:37:16;21.38;;;15.52;;
34212;SDS011;20477;51.390;8.102;2023-05-21T04:39:44;22.38;;;15.75;;
34212;SDS011;20477;51.390;8.102;2023-05-21T04:42:13;20.50;;;15.60;;
34212;SDS011;20477;51.390;8.102;2023-05-21T04:44:41;27.60;;;16.38;;
34212;SDS011;20477;51.390;8.102;2023-05-21T04:47:11;22.42;;;15.23;;
34212;SDS011;20477;51.390;8.102;2023-05-21T04:49:40;24.17;;;16.73;;
34212;SDS011;20477;51.390;8.102;2023-05-21T04:52:08;21.92;;;15.52;;
34212;SDS011;20477;51.390;8.102;2023-05-21T04:54:36;23.30;;;15.23;;
34212;SDS011;20477;51.390;8.102;2023-05-21T04:57:07;23.60;;;16.25;;
34212;SDS011;20477;51.390;8.102;2023-05-21T04:59:35;23.10;;;16.73;;
34212;SDS011;20477;51.390;8.102;2023-05-21T05:02:04;25.63;;;15.93;;
34212;SDS011;20477;51.390;8.102;2023-05-21T05:04:33;20.85;;;15.48;;
34212;SDS011;20477;51.390;8.102;2023-05-21T05:07:01;24.17;;;15.52;;
34212;SDS011;20477;51.390;8.102;2023-05-21T05:09:30;22.50;;;15.25;;
34212;SDS011;20477;51.390;8.102;2023-05-21T05:11:58;21.13;;;15.93;;
34212;SDS011;20477;51.390;8.102;2023-05-21T05:14:26;21.13;;;15.32;;
34212;SDS011;20477;51.390;8.102;2023-05-21T05:16:55;21.55;;;15.23;;
34212;SDS011;20477;51.390;8.102;2023-05-21T05:19:25;24.42;;;15.73;;
34212;SDS011;20477;51.390;8.102;2023-05-21T05:21:55;20.98;;;16.08;;
34212;SDS011;20477;51.390;8.102;2023-05-21T05:24:23;20.92;;;15.45;;
34212;SDS011;20477;51.390;8.102;2023-05-21T05:26:51;19.30;;;14.45;;
34212;SDS011;20477;51.390;8.102;2023-05-21T05:29:20;20.75;;;14.35;;
34212;SDS011;20477;51.390;8.102;2023-05-21T05:31:48;18.13;;;13.95;;
34212;SDS011;20477;51.390;8.102;2023-05-21T05:34:16;22.73;;;16.20;;
34212;SDS011;20477;51.390;8.102;2023-05-21T05:36:45;21.83;;;15.95;;
34212;SDS011;20477;51.390;8.102;2023-05-21T05:39:14;22.55;;;15.55;;
34212;SDS011;20477;51.390;8.102;2023-05-21T05:41:42;20.52;;;15.15;;
34212;SDS011;20477;51.390;8.102;2023-05-21T05:44:11;24.85;;;14.68;;
34212;SDS011;20477;51.390;8.102;2023-05-21T05:46:39;22.75;;;16.98;;
34212;SDS011;20477;51.390;8.102;2023-05-21T05:49:08;22.88;;;16.48;;
34212;SDS011;20477;51.390;8.102;2023-05-21T05:51:36;19.70;;;14.25;;
34212;SDS011;20477;51.390;8.102;2023-05-21T05:54:04;21.70;;;15.70;;
34212;SDS011;20477;51.390;8.102;2023-05-21T05:56:33;20.05;;;14.77;;
34212;SDS011;20477;51.390;8.102;2023-05-21T05:59:02;20.40;;;14.65;;
34212;SDS011;20477;51.390;8.102;2023-05-21T06:01:30;20.15;;;16.25;;
34212;SDS011;20477;51.390;8.102;2023-05-21T06:03:58;20.05;;;15.20;;
34212;SDS011;20477;51.390;8.102;2023-05-21T06:06:26;20.63;;;14.02;;
34212;SDS011;20477;51.390;8.102;2023-05-21T06:08:54;24.15;;;14.73;;
34212;SDS011;20477;51.390;8.102;2023-05-21T06:11:22;20.40;;;15.50;;
34212;SDS011;20477;51.390;8.102;2023-05-21T06:13:53;19.92;;;14.43;;
34212;SDS011;20477;51.390;8.102;2023-05-21T06:16:21;21.80;;;14.98;;
34212;SDS011;20477;51.390;8.102;2023-05-21T06:18:49;21.35;;;16.05;;
34212;SDS011;20477;51.390;8.102;2023-05-21T06:21:17;20.55;;;14.88;;
34212;SDS011;20477;51.390;8.102;2023-05-21T06:23:46;20.73;;;16.33;;
34212;SDS011;20477;51.390;8.102;2023-05-21T06:26:14;23.40;;;15.38;;
34212;SDS011;20477;51.390;8.102;2023-05-21T06:28:44;19.95;;;14.70;;
34212;SDS011;20477;51.390;8.102;2023-05-21T06:31:13;21.20;;;15.18;;
34212;SDS011;20477;51.390;8.102;2023-05-21T06:33:42;21.42;;;14.45;;
34212;SDS011;20477;51.390;8.102;2023-05-21T06:36:10;20.52;;;15.93;;
34212;SDS011;20477;51.390;8.102;2023-05-21T06:38:38;23.38;;;15.48;;
34212;SDS011;20477;51.390;8.102;2023-05-21T06:41:07;25.65;;;17.38;;
34212;SDS011;20477;51.390;8.102;2023-05-21T06:43:36;26.65;;;16.63;;
34212;SDS011;20477;51.390;8.102;2023-05-21T06:46:04;23.88;;;17.55;;
34212;SDS011;20477;51.390;8.102;2023-05-21T06:48:34;25.73;;;17.85;;
34212;SDS011;20477;51.390;8.102;2023-05-21T06:51:02;21.60;;;16.60;;
34212;SDS011;20477;51.390;8.102;2023-05-21T06:53:30;23.55;;;17.65;;
34212;SDS011;20477;51.390;8.102;2023-05-21T06:55:58;25.50;;;16.85;;
34212;SDS011;20477;51.390;8.102;2023-05-21T06:58:26;21.83;;;16.55;;
34212;SDS011;20477;51.390;8.102;2023-05-21T07:00:59;22.98;;;15.50;;
34212;SDS011;20477;51.390;8.102;2023-05-21T07:03:28;19.88;;;15.68;;
34212;SDS011;20477;51.390;8.102;2023-05-21T07:05:58;21.23;;;14.82;;
34212;SDS011;20477;51.390;8.102;2023-05-21T07:08:26;20.98;;;15.70;;
34212;SDS011;20477;51.390;8.102;2023-05-21T07:10:54;22.45;;;15.75;;
34212;SDS011;20477;51.390;8.102;2023-05-21T07:13:22;23.02;;;16.10;;
34212;SDS011;20477;51.390;8.102;2023-05-21T07:15:50;25.17;;;15.93;;
34212;SDS011;20477;51.390;8.102;2023-05-21T07:18:19;20.85;;;14.88;;
34212;SDS011;20477;51.390;8.102;2023-05-21T07:20:47;25.63;;;15.35;;
34212;SDS011;20477;51.390;8.102;2023-05-21T07:23:16;22.20;;;14.63;;
34212;SDS011;20477;51.390;8.102;2023-05-21T07:25:46;23.85;;;15.00;;
34212;SDS011;20477;51.390;8.102;2023-05-21T07:28:15;18.73;;;13.05;;
34212;SDS011;20477;51.390;8.102;2023-05-21T07:30:43;18.90;;;14.15;;
34212;SDS011;20477;51.390;8.102;2023-05-21T07:33:11;19.05;;;13.77;;
34212;SDS011;20477;51.390;8.102;2023-05-21T07:35:39;17.63;;;13.00;;
34212;SDS011;20477;51.390;8.102;2023-05-21T07:38:07;17.00;;;12.48;;
34212;SDS011;20477;51.390;8.102;2023-05-21T07:40:37;15.73;;;13.00;;
34212;SDS011;20477;51.390;8.102;2023-05-21T07:43:05;17.60;;;13.30;;
34212;SDS011;20477;51.390;8.102;2023-05-21T07:45:33;14.80;;;12.88;;
34212;SDS011;20477;51.390;8.102;2023-05-21T07:48:02;17.90;;;13.50;;
34212;SDS011;20477;51.390;8.102;2023-05-21T07:50:31;15.50;;;12.10;;
34212;SDS011;20477;51.390;8.102;2023-05-21T07:52:59;23.17;;;13.43;;
34212;SDS011;20477;51.390;8.102;2023-05-21T07:55:27;18.02;;;13.68;;
34212;SDS011;20477;51.390;8.102;2023-05-21T07:57:57;19.23;;;14.07;;
34212;SDS011;20477;51.390;8.102;2023-05-21T08:00:26;17.13;;;12.93;;
34212;SDS011;20477;51.390;8.102;2023-05-21T08:02:55;19.00;;;13.98;;
34212;SDS011;20477;51.390;8.102;2023-05-21T08:05:23;17.38;;;13.00;;
34212;SDS011;20477;51.390;8.102;2023-05-21T08:07:51;18.58;;;14.20;;
34212;SDS011;20477;51.390;8.102;2023-05-21T08:10:19;16.88;;;13.73;;
34212;SDS011;20477;51.390;8.102;2023-05-21T08:12:48;17.35;;;13.82;;
34212;SDS011;20477;51.390;8.102;2023-05-21T08:15:17;15.75;;;13.48;;
34212;SDS011;20477;51.390;8.102;2023-05-21T08:17:46;17.40;;;13.00;;
34212;SDS011;20477;51.390;8.102;2023-05-21T08:20:14;19.23;;;13.80;;
34212;SDS011;20477;51.390;8.102;2023-05-21T08:22:43;18.38;;;13.00;;
34212;SDS011;20477;51.390;8.102;2023-05-21T08:25:11;16.33;;;13.85;;
34212;SDS011;20477;51.390;8.102;2023-05-21T08:27:39;18.13;;;14.20;;
34212;SDS011;20477;51.390;8.102;2023-05-21T08:30:08;18.63;;;13.38;;
34212;SDS011;20477;51.390;8.102;2023-05-21T08:32:38;19.35;;;13.80;;
34212;SDS011;20477;51.390;8.102;2023-05-21T08:35:07;16.70;;;13.60;;
34212;SDS011;20477;51.390;8.102;2023-05-21T08:37:35;17.58;;;13.13;;
34212;SDS011;20477;51.390;8.102;2023-05-21T08:40:04;14.98;;;12.10;;
34212;SDS011;20477;51.390;8.102;2023-05-21T08:42:35;16.42;;;13.50;;
34212;SDS011;20477;51.390;8.102;2023-05-21T08:45:07;20.40;;;13.35;;
34212;SDS011;20477;51.390;8.102;2023-05-21T08:47:36;33.58;;;13.90;;
34212;SDS011;20477;51.390;8.102;2023-05-21T08:50:06;16.42;;;13.55;;
34212;SDS011;20477;51.390;8.102;2023-05-21T08:52:35;16.35;;;12.52;;
34212;SDS011;20477;51.390;8.102;2023-05-21T08:55:03;18.75;;;13.40;;
34212;SDS011;20477;51.390;8.102;2023-05-21T08:57:32;21.88;;;14.32;;
34212;SDS011;20477;51.390;8.102;2023-05-21T09:00:01;18.10;;;13.90;;
34212;SDS011;20477;51.390;8.102;2023-05-21T09:02:32;19.40;;;13.90;;
34212;SDS011;20477;51.390;8.102;2023-05-21T09:05:04;16.38;;;13.90;;
34212;SDS011;20477;51.390;8.102;2023-05-21T09:07:37;18.48;;;14.25;;
34212;SDS011;20477;51.390;8.102;2023-05-21T09:10:06;22.17;;;14.37;;
34212;SDS011;20477;51.390;8.102;2023-05-21T09:12:36;17.25;;;14.80;;
34212;SDS011;20477;51.390;8.102;2023-05-21T09:15:05;18.05;;;14.55;;
34212;SDS011;20477;51.390;8.102;2023-05-21T09:17:34;16.98;;;14.18;;
34212;SDS011;20477;51.390;8.102;2023-05-21T09:20:11;20.80;;;14.80;;
34212;SDS011;20477;51.390;8.102;2023-05-21T09:22:41;18.55;;;14.90;;
34212;SDS011;20477;51.390;8.102;2023-05-21T09:25:11;18.50;;;14.75;;
34212;SDS011;20477;51.390;8.102;2023-05-21T09:27:41;21.05;;;14.88;;
34212;SDS011;20477;51.390;8.102;2023-05-21T09:30:09;16.75;;;14.95;;
34212;SDS011;20477;51.390;8.102;2023-05-21T09:32:39;20.27;;;14.82;;
34212;SDS011;20477;51.390;8.102;2023-05-21T09:35:08;16.77;;;14.98;;
34212;SDS011;20477;51.390;8.102;2023-05-21T09:37:39;19.40;;;14.90;;
34212;SDS011;20477;51.390;8.102;2023-05-21T09:40:10;20.13;;;16.33;;
34212;SDS011;20477;51.390;8.102;2023-05-21T09:42:39;21.25;;;16.15;;
34212;SDS011;20477;51.390;8.102;2023-05-21T09:45:08;18.30;;;13.50;;
34212;SDS011;20477;51.390;8.102;2023-05-21T09:47:40;24.95;;;16.05;;
34212;SDS011;20477;51.390;8.102;2023-05-21T09:50:11;19.95;;;15.65;;
34212;SDS011;20477;51.390;8.102;2023-05-21T09:52:39;20.58;;;15.32;;
34212;SDS011;20477;51.390;8.102;2023-05-21T09:55:09;22.15;;;15.15;;
34212;SDS011;20477;51.390;8.102;2023-05-21T09:57:41;26.73;;;14.63;;
34212;SDS011;20477;51.390;8.102;2023-05-21T10:00:16;19.92;;;15.05;;
34212;SDS011;20477;51.390;8.102;2023-05-21T10:02:45;19.00;;;14.88;;
34212;SDS011;20477;51.390;8.102;2023-05-21T10:05:15;18.30;;;15.20;;
34212;SDS011;20477;51.390;8.102;2023-05-21T10:07:46;23.02;;;16.73;;
34212;SDS011;20477;51.390;8.102;2023-05-21T10:10:18;24.05;;;15.13;;
34212;SDS011;20477;51.390;8.102;2023-05-21T10:12:48;25.40;;;16.10;;
34212;SDS011;20477;51.390;8.102;2023-05-21T10:15:21;17.80;;;14.65;;
34212;SDS011;20477;51.390;8.102;2023-05-21T10:17:51;19.38;;;14.32;;
34212;SDS011;20477;51.390;8.102;2023-05-21T10:20:20;19.65;;;15.63;;
34212;SDS011;20477;51.390;8.102;2023-05-21T10:22:49;21.67;;;14.27;;
34212;SDS011;20477;51.390;8.102;2023-05-21T10:25:17;28.38;;;16.35;;
34212;SDS011;20477;51.390;8.102;2023-05-21T10:27:45;19.17;;;14.25;;
34212;SDS011;20477;51.390;8.102;2023-05-21T10:30:15;18.80;;;15.45;;
34212;SDS011;20477;51.390;8.102;2023-05-21T10:32:44;24.75;;;16.90;;
34212;SDS011;20477;51.390;8.102;2023-05-21T10:35:15;20.48;;;17.52;;
34212;SDS011;20477;51.390;8.102;2023-05-21T10:37:45;18.50;;;15.90;;
34212;SDS011;20477;51.390;8.102;2023-05-21T10:40:13;20.08;;;16.80;;
34212;SDS011;20477;51.390;8.102;2023-05-21T10:42:47;20.25;;;15.93;;
34212;SDS011;20477;51.390;8.102;2023-05-21T10:45:30;20.60;;;15.85;;
34212;SDS011;20477;51.390;8.102;2023-05-21T10:48:09;20.23;;;15.55;;
34212;SDS011;20477;51.390;8.102;2023-05-21T10:50:49;22.25;;;17.00;;
34212;SDS011;20477;51.390;8.102;2023-05-21T10:53:42;20.70;;;16.27;;
34212;SDS011;20477;51.390;8.102;2023-05-21T10:56:21;23.48;;;17.58;;
34212;SDS011;20477;51.390;8.102;2023-05-21T11:01:48;22.27;;;17.13;;
34212;SDS011;20477;51.390;8.102;2023-05-21T11:04:20;19.83;;;16.48;;
34212;SDS011;20477;51.390;8.102;2023-05-21T11:06:49;22.42;;;16.58;;
34212;SDS011;20477;51.390;8.102;2023-05-21T11:09:18;23.95;;;17.23;;
34212;SDS011;20477;51.390;8.102;2023-05-21T11:11:48;24.15;;;16.70;;
34212;SDS011;20477;51.390;8.102;2023-05-21T11:14:33;20.40;;;16.52;;
34212;SDS011;20477;51.390;8.102;2023-05-21T11:17:08;20.63;;;17.50;;
34212;SDS011;20477;51.390;8.102;2023-05-21T11:19:39;21.35;;;16.15;;
34212;SDS011;20477;51.390;8.102;2023-05-21T11:22:08;20.63;;;18.38;;
34212;SDS011;20477;51.390;8.102;2023-05-21T11:24:48;20.95;;;16.67;;
34212;SDS011;20477;51.390;8.102;2023-05-21T11:27:29;25.08;;;17.90;;
34212;SDS011;20477;51.390;8.102;2023-05-21T11:30:02;24.33;;;18.83;;
34212;SDS011;20477;51.390;8.102;2023-05-21T11:32:32;27.77;;;16.70;;
34212;SDS011;20477;51.390;8.102;2023-05-21T11:35:03;20.75;;;17.02;;
34212;SDS011;20477;51.390;8.102;2023-05-21T11:37:33;20.40;;;17.30;;
34212;SDS011;20477;51.390;8.102;2023-05-21T11:40:17;25.40;;;17.25;;
34212;SDS011;20477;51.390;8.102;2023-05-21T11:42:47;25.23;;;16.92;;
34212;SDS011;20477;51.390;8.102;2023-05-21T11:45:18;21.67;;;17.02;;
34212;SDS011;20477;51.390;8.102;2023-05-21T11:47:46;21.33;;;18.05;;
34212;SDS011;20477;51.390;8.102;2023-05-21T11:50:15;23.63;;;18.38;;
34212;SDS011;20477;51.390;8.102;2023-05-21T11:52:43;24.52;;;16.80;;
34212;SDS011;20477;51.390;8.102;2023-05-21T11:55:12;26.92;;;17.60;;
34212;SDS011;20477;51.390;8.102;2023-05-21T11:57:43;21.70;;;17.67;;
34212;SDS011;20477;51.390;8.102;2023-05-21T12:00:13;26.63;;;19.95;;
34212;SDS011;20477;51.390;8.102;2023-05-21T12:02:43;22.40;;;17.77;;
34212;SDS011;20477;51.390;8.102;2023-05-21T12:05:12;26.95;;;18.30;;
34212;SDS011;20477;51.390;8.102;2023-05-21T12:07:41;19.70;;;16.63;;
34212;SDS011;20477;51.390;8.102;2023-05-21T12:10:09;21.15;;;17.90;;
34212;SDS011;20477;51.390;8.102;2023-05-21T12:12:38;22.02;;;17.23;;
34212;SDS011;20477;51.390;8.102;2023-05-21T12:15:21;22.00;;;17.40;;
34212;SDS011;20477;51.390;8.102;2023-05-21T12:17:51;20.65;;;16.55;;
34212;SDS011;20477;51.390;8.102;2023-05-21T12:20:19;20.85;;;17.02;;
34212;SDS011;20477;51.390;8.102;2023-05-21T12:22:47;21.50;;;17.30;;
34212;SDS011;20477;51.390;8.102;2023-05-21T12:25:16;24.65;;;18.45;;
34212;SDS011;20477;51.390;8.102;2023-05-21T12:27:45;23.80;;;18.13;;
34212;SDS011;20477;51.390;8.102;2023-05-21T12:30:16;45.55;;;27.10;;
34212;SDS011;20477;51.390;8.102;2023-05-21T12:32:46;20.92;;;17.02;;
34212;SDS011;20477;51.390;8.102;2023-05-21T12:35:24;32.65;;;20.25;;
34212;SDS011;20477;51.390;8.102;2023-05-21T12:37:53;22.17;;;17.55;;
34212;SDS011;20477;51.390;8.102;2023-05-21T12:40:23;21.00;;;16.35;;
34212;SDS011;20477;51.390;8.102;2023-05-21T12:43:02;19.55;;;16.02;;
34212;SDS011;20477;51.390;8.102;2023-05-21T12:45:31;20.55;;;15.70;;
34212;SDS011;20477;51.390;8.102;2023-05-21T12:48:01;18.00;;;15.77;;
34212;SDS011;20477;51.390;8.102;2023-05-21T12:50:30;17.25;;;15.43;;
34212;SDS011;20477;51.390;8.102;2023-05-21T12:53:01;23.88;;;14.88;;
34212;SDS011;20477;51.390;8.102;2023-05-21T12:55:29;19.45;;;15.20;;
34212;SDS011;20477;51.390;8.102;2023-05-21T12:58:01;17.92;;;14.43;;
34212;SDS011;20477;51.390;8.102;2023-05-21T13:00:33;16.40;;;13.93;;
34212;SDS011;20477;51.390;8.102;2023-05-21T13:03:03;21.42;;;14.20;;
34212;SDS011;20477;51.390;8.102;2023-05-21T13:05:32;36.00;;;23.60;;
34212;SDS011;20477;51.390;8.102;2023-05-21T13:08:01;23.95;;;16.63;;
34212;SDS011;20477;51.390;8.102;2023-05-21T13:10:29;15.05;;;12.70;;
34212;SDS011;20477;51.390;8.102;2023-05-21T13:12:57;14.27;;;12.13;;
34212;SDS011;20477;51.390;8.102;2023-05-21T13:15:27;14.10;;;12.30;;
34212;SDS011;20477;51.390;8.102;2023-05-21T13:17:56;18.27;;;13.00;;
34212;SDS011;20477;51.390;8.102;2023-05-21T13:20:28;17.02;;;12.52;;
34212;SDS011;20477;51.390;8.102;2023-05-21T13:22:56;16.35;;;12.88;;
34212;SDS011;20477;51.390;8.102;2023-05-21T13:25:24;16.02;;;13.07;;
34212;SDS011;20477;51.390;8.102;2023-05-21T13:27:55;16.90;;;14.73;;
34212;SDS011;20477;51.390;8.102;2023-05-21T13:30:23;15.75;;;13.93;;
34212;SDS011;20477;51.390;8.102;2023-05-21T13:32:52;21.42;;;14.32;;
34212;SDS011;20477;51.390;8.102;2023-05-21T13:35:20;18.17;;;13.68;;
34212;SDS011;20477;51.390;8.102;2023-05-21T13:37:50;18.92;;;14.82;;
34212;SDS011;20477;51.390;8.102;2023-05-21T13:40:18;17.70;;;13.98;;
34212;SDS011;20477;51.390;8.102;2023-05-21T13:42:47;13.43;;;10.70;;
34212;SDS011;20477;51.390;8.102;2023-05-21T13:45:16;12.00;;;10.70;;
34212;SDS011;20477;51.390;8.102;2023-05-21T13:47:45;12.38;;;10.77;;
34212;SDS011;20477;51.390;8.102;2023-05-21T13:50:14;13.13;;;10.32;;
34212;SDS011;20477;51.390;8.102;2023-05-21T13:52:42;14.77;;;11.13;;
34212;SDS011;20477;51.390;8.102;2023-05-21T13:55:12;14.77;;;11.63;;
34212;SDS011;20477;51.390;8.102;2023-05-21T13:57:42;14.70;;;11.23;;
34212;SDS011;20477;51.390;8.102;2023-05-21T14:00:12;17.17;;;12.18;;
34212;SDS011;20477;51.390;8.102;2023-05-21T14:02:41;18.45;;;12.60;;
34212;SDS011;20477;51.390;8.102;2023-05-21T14:05:10;15.85;;;10.07;;
34212;SDS011;20477;51.390;8.102;2023-05-21T14:07:39;12.93;;;10.50;;
34212;SDS011;20477;51.390;8.102;2023-05-21T14:10:07;13.45;;;11.05;;
34212;SDS011;20477;51.390;8.102;2023-05-21T14:12:37;15.70;;;10.90;;
34212;SDS011;20477;51.390;8.102;2023-05-21T14:15:06;17.65;;;10.68;;
34212;SDS011;20477;51.390;8.102;2023-05-21T14:17:35;12.73;;;9.88;;
34212;SDS011;20477;51.390;8.102;2023-05-21T14:20:06;12.23;;;10.43;;
34212;SDS011;20477;51.390;8.102;2023-05-21T14:22:35;16.23;;;10.35;;
34212;SDS011;20477;51.390;8.102;2023-05-21T14:25:04;15.80;;;10.52;;
34212;SDS011;20477;51.390;8.102;2023-05-21T14:27:33;16.88;;;9.75;;
34212;SDS011;20477;51.390;8.102;2023-05-21T14:30:05;12.90;;;10.68;;
34212;SDS011;20477;51.390;8.102;2023-05-21T14:32:34;13.10;;;10.48;;
34212;SDS011;20477;51.390;8.102;2023-05-21T14:35:03;15.18;;;11.82;;
34212;SDS011;20477;51.390;8.102;2023-05-21T14:37:32;15.82;;;12.73;;